Weather observations for the past three days for
Mojave
Imperial (Metric)
Date Time (pdt) Wind (mph) Vis. (mi.) Weather Sky Cond. Temperature (ºF) Relative Humidity Wind Chill (°F) Heat Index (°F) Pressure Precipitation (in)
Air Dwpt 6 hour altimeter (in) sea level (mb) 1 hr 3 hr 6 hr
Max. Min.
01 23:35 W 16 10.00 Fair CLR 67.6 39.7 36% 30.01 0.0
01 23:15 W 15 10.00 Fair CLR 67.6 39 35% 30 0.0
01 22:55 W 15 10.00 Fair CLR 68.2 38.1 85.6 68.2 33% 30 0.0
01 22:35 W 16 10.00 Fair CLR 68.5 37.8 32% 30 0.0
01 22:15 W 17 G 23 10.00 Fair CLR 68.9 37.6 32% 30.01 0.0
01 21:55 W 13 10.00 Fair CLR 69.3 36.5 30% 30.01 0.0
01 21:35 W 12 10.00 Fair CLR 69.3 36.5 30% 30 0.0
01 21:15 W 13 10.00 Fair CLR 69.8 37.9 31% 29.99 0.0
01 20:55 W 10 10.00 Fair CLR 70.3 39 32% 29.98 0.0
01 20:35 SW 9 10.00 Fair CLR 71.2 37.2 29% 29.98 0.0
01 20:15 W 9 10.00 Fair CLR 72 34.7 26% 29.97 0.0
01 19:55 SW 9 10.00 Fair CLR 73.4 33.4 23% 29.96 0.0
01 19:35 SW 15 10.00 Fair CLR 74.7 32.5 21% 29.96 0.0
01 19:15 SW 14 10.00 Fair CLR 75.9 32 20% 76 29.95 0.0
01 18:55 SW 20 10.00 Fair CLR 78.6 28.8 16% 78 29.95 0.0
01 18:35 SW 15 G 23 9.00 Fair CLR 80.4 29.1 15% 79 29.95 0.0
01 18:15 SW 16 10.00 Fair CLR 81.9 30.2 15% 80 29.94 0.0
01 17:55 SW 13 10.00 Fair CLR 83.3 31.8 16% 81 29.94 0.0
01 17:35 W 10 G 23 10.00 Fair CLR 84 31.5 15% 81 29.95 0.0
01 17:15 SW 9 10.00 Fair CLR 85.3 30.7 14% 82 29.94 0.0
01 16:55 W 7 G 23 10.00 Fair CLR 85.5 30.6 87.1 80.1 14% 82 29.95 0.0
01 16:35 S 22 G 29 10.00 Fair and Breezy CLR 85.8 31.1 14% 82 29.94 0.0
01 16:15 SW 21 G 30 10.00 Fair and Breezy CLR 85.8 30.7 14% 82 29.95 0.0
01 15:55 SW 18 10.00 Fair CLR 86.2 26.8 11% 83 29.95 0.0
01 15:35 SW 18 G 25 10.00 Fair CLR 86.4 25.2 11% 83 29.95 0.0
01 15:15 SW 18 10.00 Fair CLR 86 23.9 10% 83 29.96 0.0
01 14:55 SW 15 10.00 Fair CLR 86.4 23.9 10% 83 29.96 0.0
01 14:35 S 17 10.00 Fair CLR 86.2 20.8 9% 83 29.97 0.0
01 14:15 S 21 10.00 Fair and Breezy CLR 85.3 21.6 9% 82 29.97 0.0
01 13:55 SW 17 G 24 10.00 Fair CLR 85.5 19.6 9% 82 29.98 0.0
01 13:35 S 20 G 26 10.00 Fair CLR 84.6 19.6 9% 82 29.98 0.0
01 13:15 SW 20 G 29 10.00 Fair CLR 83.7 18.9 9% 81 29.99 0.0
01 12:55 SW 21 G 26 10.00 Fair and Breezy CLR 83.5 18.7 9% 81 30 0.0
01 12:35 SW 22 G 28 10.00 Fair and Breezy CLR 83.1 15.8 8% 80 30 0.0
01 12:15 SW 20 10.00 Fair CLR 82.9 15.6 8% 80 30.01 0.0
01 11:55 SW 20 10.00 Fair CLR 81.9 14.9 8% 79 30.02 0.0
01 11:35 SW 17 G 29 10.00 Fair CLR 81.5 14.5 8% 79 30.02 0.0
01 11:15 S 22 G 26 10.00 Fair and Breezy CLR 80.2 13.5 8% 78 30.02 0.0
01 10:55 SW 15 10.00 Fair CLR 78.8 12.4 78.8 55.6 8% 77 30.02 0.0
01 10:35 SW 20 G 24 10.00 Fair CLR 78.1 12 8% 77 30.02 0.0
01 10:15 SW 16 10.00 Fair CLR 78.1 12 8% 77 30.02 0.0
01 09:55 SW 17 10.00 Fair CLR 76.6 13.5 9% 76 30.01 0.0
01 09:35 SW 13 G 21 10.00 Fair CLR 77.4 14.2 9% 76 30.02 0.0
01 09:15 SW 16 10.00 Fair CLR 75.9 15.4 10% 75 30.01 0.0
01 08:55 SW 14 10.00 Fair CLR 75 14.7 10% 75 30.01 0.0
01 08:35 SW 12 10.00 Fair CLR 73.9 13.8 10% 30.01 0.0
01 08:15 S 8 10.00 Fair CLR 71.2 11.8 10% 30.01 0.0
01 07:55 S 5 10.00 Fair CLR 67.1 6.4 9% 30.01 0.0
01 07:35 SW 3 9.00 Fair CLR 63.5 7.7 11% 30.01 0.0
01 07:15 S 7 9.00 Fair CLR 62.2 7.3 11% 30 0.0
01 06:55 S 5 7.00 Fair CLR 59.5 9 13% 30 0.0
01 06:35 Calm 9.00 Fair CLR 57.2 9.9 15% 29.99 0.0
01 06:15 Calm 9.00 Fair CLR 58.3 7.5 13% 30 0.0
01 05:55 W 5 10.00 Fair CLR 56.8 8.2 14% 29.99 0.0
01 05:35 SW 6 10.00 Fair CLR 56.3 9.5 15% 29.99 0.0
01 05:15 SW 7 10.00 Fair CLR 63 2.7 9% 29.99 0.0
01 04:55 SW 7 10.00 Fair CLR 61.7 4.5 68.7 60.4 10% 29.99 0.0
01 04:35 SW 7 10.00 Fair CLR 61.2 4.1 10% 29.99 0.0
01 04:15 SW 9 10.00 Fair CLR 62.1 7 11% 29.98 0.0
01 03:55 S 7 10.00 Fair CLR 61.5 15.8 17% 29.98 0.0
01 03:35 SW 8 10.00 Fair CLR 64.9 12.2 13% 29.97 0.0
01 03:15 SW 12 10.00 Fair CLR 67.5 7.9 9% 29.97 0.0
01 02:55 SW 12 10.00 Fair CLR 66.4 15.8 14% 29.98 0.0
01 02:35 SW 13 10.00 Fair CLR 67.1 17.6 15% 29.98 0.0
01 02:15 SW 14 10.00 Fair CLR 68.2 16 13% 29.98 0.0
01 01:55 W 8 10.00 Fair CLR 63.9 22.5 20% 29.98 0.0
01 01:35 W 9 10.00 Fair CLR 65.7 20.5 18% 29.98 0.0
01 01:15 SW 9 10.00 Fair CLR 64.9 21.7 19% 29.98 0.0
01 00:55 SW 6 10.00 Fair CLR 62.8 29.1 28% 29.99 0.0
01 00:35 SW 7 10.00 Fair CLR 64.2 27 24% 29.99 0.0
01 00:15 SW 9 10.00 Fair CLR 66.6 27.5 23% 29.99 0.0
31 23:55 SW 7 10.00 Fair CLR 64.4 30.6 28% 29.98 0.0
31 23:35 SW 8 10.00 Fair CLR 65.1 29.3 26% 29.98 0.0
31 23:15 W 8 10.00 Fair CLR 65.5 28.2 25% 29.97 0.0
31 22:55 SW 9 10.00 Fair CLR 67.8 25.5 86.4 67.8 20% 29.97 0.0
31 22:35 SW 10 10.00 Fair CLR 70.2 26.1 19% 29.97 0.0
31 22:15 SW 13 10.00 Fair CLR 71.4 25.7 18% 29.97 0.0
31 21:55 SW 12 10.00 Fair CLR 71.6 25.5 18% 29.97 0.0
31 21:35 SW 10 10.00 Fair CLR 71.8 27.3 19% 29.97 0.0
31 21:15 SW 12 10.00 Fair CLR 72.1 30.9 22% 29.96 0.0
31 20:55 SW 12 10.00 Fair CLR 73.2 31.5 21% 29.95 0.0
31 20:35 SW 9 10.00 Fair CLR 73.8 33.1 23% 29.95 0.0
31 20:15 SW 14 10.00 Fair CLR 74.7 37.4 26% 29.94 0.0
31 19:55 SW 17 10.00 Fair CLR 75.6 41 29% 77 29.93 0.0
31 19:35 SW 18 10.00 Fair CLR 76.5 41.9 29% 77 29.92 0.0
31 19:15 SW 18 G 23 10.00 Fair CLR 78.1 38.7 24% 78 29.92 0.0
31 18:55 SW 16 G 24 10.00 Fair CLR 80.2 37.9 22% 79 29.92 0.0
31 18:35 SW 17 G 26 10.00 Fair CLR 81.5 35.8 19% 80 29.91 0.0
31 18:15 SW 22 G 29 10.00 Fair and Breezy CLR 82.6 37.4 20% 80 29.91 0.0
31 17:55 SW 22 G 26 10.00 Fair and Breezy CLR 84.2 35.6 18% 81 29.91 0.0
31 17:35 SW 24 G 30 10.00 Fair and Breezy CLR 84.9 33.6 16% 82 29.91 0.0
31 17:15 SW 22 G 29 10.00 Fair and Breezy CLR 86 34.5 16% 83 29.91 0.0
31 16:55 SW 23 G 30 10.00 Fair and Breezy CLR 86.7 33.4 90.3 84.9 15% 83 29.91 0.0
31 16:35 S 18 10.00 Fair CLR 87.8 32.7 14% 84 29.91 0.0
31 16:15 SW 21 G 25 10.00 Fair and Breezy CLR 88.3 34.9 15% 85 29.91 0.0
31 15:55 SW 18 G 23 10.00 Fair CLR 88.5 32.9 14% 85 29.92 0.0
31 15:35 SW 17 10.00 Fair CLR 88.5 29.5 12% 85 29.92 0.0
31 15:15 S 18 10.00 Fair CLR 88.7 30.4 12% 85 29.93 0.0
31 14:55 SW 21 G 28 10.00 Fair and Breezy CLR 88.2 33.1 14% 84 29.94 0.0
31 14:35 SW 23 G 28 10.00 Fair and Breezy CLR 89.2 31.5 13% 85 29.94 0.0
31 14:15 SW 18 G 31 10.00 Fair CLR 89.4 25.7 10% 85 29.95 0.0
31 13:55 SW 17 G 29 10.00 A Few Clouds FEW370 89.6 25.9 10% 86 29.95 0.0
31 13:35 SW 21 G 28 10.00 Fair and Breezy CLR 89.4 24.3 9% 85 29.95 0.0
31 13:15 SW 18 G 25 10.00 Fair CLR 89.1 25.3 10% 85 29.95 0.0
31 12:55 SW 20 G 29 10.00 A Few Clouds FEW370 89.2 26.4 10% 85 29.96 0.0
31 12:35 SW 16 G 24 10.00 A Few Clouds FEW370 88.7 28.4 11% 85 29.96 0.0
31 12:15 S 14 10.00 Fair CLR 88.5 28.9 12% 85 29.96 0.0
31 11:55 S 17 G 22 10.00 Fair CLR 86.9 32 14% 83 29.97 0.0
31 11:35 SW 15 G 25 10.00 Fair CLR 86.4 34 15% 83 29.97 0.0
31 11:15 SW 12 10.00 Fair CLR 86 32.9 15% 83 29.97 0.0
31 10:55 SW 16 G 23 10.00 Fair CLR 84.6 33.1 84.6 63.5 16% 82 29.98 0.0
31 10:35 SW 16 10.00 Fair CLR 83.1 36.5 19% 81 29.98 0.0
31 10:15 SW 13 10.00 Fair CLR 81.9 39.9 22% 80 29.98 0.0
31 09:55 S 13 10.00 Fair CLR 81 38.8 22% 79 29.97 0.0
31 09:35 SW 10 10.00 Fair CLR 79.9 38.1 22% 79 29.97 0.0
31 09:15 S 12 10.00 Fair CLR 79.2 34.7 20% 78 29.96 0.0
31 08:55 SW 10 10.00 Fair CLR 78.1 36.1 22% 78 29.96 0.0
31 08:35 S 9 10.00 Fair CLR 77.2 37.8 24% 77 29.96 0.0
31 08:15 S 9 10.00 Fair CLR 75 40.8 29% 77 29.96 0.0
31 07:55 SW 9 9.00 Fair CLR 71.4 43 36% 29.96 0.0
31 07:35 SW 8 10.00 Fair CLR 69.8 43.7 39% 29.96 0.0
31 07:15 SW 10 10.00 Fair CLR 67.3 44.1 43% 29.95 0.0
31 06:55 SW 8 9.00 Fair CLR 64.8 44.1 47% 29.94 0.0
31 06:35 SW 8 9.00 Fair CLR 64.4 43.9 47% 29.94 0.0
31 06:15 SW 8 9.00 Fair CLR 63.9 42.1 45% 29.93 0.0
31 05:55 SW 8 10.00 Fair CLR 65.5 41.7 42% 29.93 0.0
31 05:35 SW 8 10.00 Fair CLR 65.5 40.1 40% 29.93 0.0
31 05:15 SW 8 10.00 Fair CLR 65.5 39.9 39% 29.92 0.0
31 04:55 W 7 10.00 Fair CLR 66.4 39.4 77.4 66.2 37% 29.92 0.0
31 04:35 SW 5 10.00 Fair CLR 66.4 39.4 37% 29.93 0.0
31 04:15 SW 6 10.00 A Few Clouds FEW140 67.5 40.3 37% 29.93 0.0
31 03:55 W 6 10.00 Partly Cloudy SCT140 69.1 41 36% 29.93 0.0
31 03:35 W 7 8.00 Partly Cloudy SCT150 69.6 41 35% 29.93 0.0
31 03:15 W 6 9.00 Partly Cloudy SCT150 68.7 40.6 36% 29.93 0.0
31 02:55 SW 8 10.00 Mostly Cloudy BKN150 70.7 40.8 34% 29.93 0.0
31 02:35 SW 8 10.00 Partly Cloudy SCT150 70.9 41 34% 29.93 0.0
31 02:15 SW 9 10.00 Mostly Cloudy BKN150 71.8 41.9 34% 29.93 0.0
31 01:55 SW 6 10.00 Partly Cloudy SCT140 71.1 41.4 34% 29.93 0.0
31 01:35 SW 7 10.00 Partly Cloudy SCT150 70.9 41.2 34% 29.93 0.0
31 01:15 SW 9 10.00 A Few Clouds FEW150 70.7 41 34% 29.94 0.0
31 00:55 SW 8 10.00 Partly Cloudy SCT150 72.3 40.8 32% 29.94 0.0
31 00:35 SW 8 10.00 A Few Clouds FEW150 73.6 41.2 31% 29.94 0.0
31 00:15 SW 9 10.00 Fair CLR 75.4 41.9 30% 77 29.94 0.0
30 23:55 SW 8 10.00 Fair CLR 76.1 42.1 30% 77 29.94 0.0
30 23:35 SW 8 10.00 Fair CLR 76.1 42.3 30% 77 29.95 0.0
30 23:15 W 10 10.00 Partly Cloudy SCT150 77.4 41.7 28% 78 29.94 0.0
30 22:55 W 8 10.00 Overcast OVC150 78.3 41.5 89.2 77.7 27% 78 29.95 0.0
30 22:35 W 8 10.00 Overcast OVC160 77.9 41.2 27% 78 29.95 0.0
30 22:15 W 9 10.00 Mostly Cloudy BKN170 78.6 39.9 25% 78 29.94 0.0
30 21:55 SW 10 10.00 Mostly Cloudy BKN160 79.3 38.3 23% 78 29.95 0.0
30 21:35 SW 9 10.00 Mostly Cloudy BKN160 79.5 39.2 24% 79 29.94 0.0
30 21:15 SW 9 10.00 Mostly Cloudy BKN160 80.1 38.8 23% 79 29.94 0.0
30 20:55 SW 8 10.00 Mostly Cloudy BKN160 79.9 39.9 24% 79 29.93 0.0
30 20:35 W 13 10.00 Partly Cloudy SCT160 80.4 39.2 23% 79 29.92 0.0
30 20:15 W 13 10.00 Mostly Cloudy BKN160 81 38.7 22% 79 29.91 0.0
30 19:55 W 10 10.00 A Few Clouds FEW160 82.2 34.5 18% 80 29.9 0.0
30 19:35 W 13 10.00 Partly Cloudy FEW140 SCT160 82.9 33.6 17% 80 29.9 0.0
30 19:15 W 12 10.00 Mostly Cloudy BKN140 BKN160 84 33.1 16% 81 29.9 0.0
30 18:55 W 14 10.00 Overcast OVC140 86.2 31.5 14% 83 29.9 0.0
30 18:35 W 13 9.00 Overcast FEW120 OVC150 87.3 33.3 14% 84 29.9 0.0
30 18:15 W 13 10.00 Mostly Cloudy FEW120 SCT150 BKN180 87.4 34.2 15% 84 29.9 0.0
30 17:55 W 13 10.00 A Few Clouds FEW150 88 34.9 15% 84 29.9 0.0
30 17:35 NW 13 10.00 A Few Clouds FEW150 87.4 35.8 16% 84 29.9 0.0
30 17:15 NW 12 10.00 A Few Clouds FEW180 88.3 35.8 15% 85 29.9 0.0
30 16:55 SW 17 G 25 10.00 Fair CLR 90 43.5 93.9 88.7 20% 86 29.9 0.0
30 16:35 SW 17 G 28 10.00 A Few Clouds FEW170 91.4 44.6 20% 88 29.89 0.0
30 16:15 SW 17 G 24 10.00 A Few Clouds FEW170 91.8 45.5 20% 88 29.9 0.0
30 15:55 SW 20 G 30 10.00 Fair CLR 92.3 44.4 19% 88 29.9 0.0
30 15:35 SW 17 G 28 10.00 A Few Clouds FEW180 93.4 45.1 19% 90 29.91 0.0
30 15:15 SW 16 G 23 10.00 Partly Cloudy FEW160 SCT190 92.5 45.7 20% 89 29.91 0.0
30 14:55 S 18 10.00 Mostly Cloudy BKN150 92.1 44.6 19% 88 29.92 0.0
30 14:35 S 16 G 23 10.00 Mostly Cloudy BKN150 91.2 44.4 20% 87 29.92 0.0
30 14:15 S 21 10.00 Mostly Cloudy and Breezy BKN150 BKN190 91.4 43.5 19% 88 29.93 0.0
30 13:55 S 18 G 26 10.00 Partly Cloudy SCT160 SCT330 92.3 43.2 18% 88 29.93 0.0
30 13:35 S 21 G 25 10.00 Fair and Breezy CLR 92.1 41 17% 88 29.93 0.0
30 13:15 S 18 G 26 10.00 A Few Clouds FEW370 93.6 41 16% 89 29.93 0.0
30 12:55 SW 17 10.00 A Few Clouds FEW380 93.9 37.6 14% 89 29.94 0.0
30 12:35 SE 13 G 20 10.00 Partly Cloudy SCT160 SCT370 92.1 37.4 15% 88 29.95 0.0
30 12:15 SW 9 10.00 Mostly Cloudy BKN150 91.8 36.5 14% 88 29.95 0.0
30 11:55 SW 6 9.00 Partly Cloudy SCT140 SCT160 90.1 36.3 15% 86 29.96 0.0
30 11:35 Vrbl 5 10.00 A Few Clouds FEW160 90.1 38.5 16% 86 29.96 0.0
30 11:15 W 8 10.00 Fair CLR 90 37.9 16% 86 29.97 0.0
30 10:55 W 9 10.00 Fair CLR 89.6 32.9 89.6 72 13% 86 29.97 0.0
30 10:35 W 10 10.00 Fair CLR 88.2 36.1 16% 84 29.97 0.0
30 10:15 W 9 10.00 Fair CLR 86.9 39.7 19% 84 29.97 0.0
30 09:55 W 12 10.00 A Few Clouds FEW310 84.7 42.1 22% 82 29.97 0.0
30 09:35 W 14 10.00 A Few Clouds FEW230 84.2 44.2 25% 82 29.97 0.0
30 09:15 W 12 10.00 Partly Cloudy SCT230 81.3 48.9 32% 80 29.97 0.0
30 08:55 W 15 10.00 Fair CLR 78.8 50.4 37% 79 29.97 0.0
30 08:35 W 13 10.00 Fair CLR 77.2 50.9 40% 78 29.98 0.0
30 08:15 W 12 10.00 Fair CLR 75.9 51.3 42% 78 29.98 0.0
30 07:55 W 14 10.00 Fair CLR 74.8 51.4 44% 29.97 0.0
30 07:35 W 12 9.00 Fair CLR 74.1 50.9 44% 29.97 0.0
30 07:15 W 13 9.00 A Few Clouds FEW230 73 50.7 46% 29.97 0.0
30 06:55 W 10 10.00 Fair CLR 72.5 51.1 47% 29.97 0.0
30 06:35 W 14 10.00 Fair CLR 72.7 51.4 47% 29.97 0.0
30 06:15 W 13 10.00 Fair CLR 73 51.1 46% 29.96 0.0
30 05:55 W 9 10.00 Fair CLR 72.1 50.5 47% 29.96 0.0
30 05:35 W 10 10.00 Fair CLR 72 50.2 46% 29.95 0.0
30 05:15 W 12 G 21 10.00 Fair CLR 72.9 50.4 45% 29.96 0.0
30 04:55 W 10 10.00 Fair CLR 74.1 50.4 78.1 73 43% 29.95 0.0
30 04:35 W 13 10.00 Fair CLR 73.2 50 44% 29.95 0.0
30 04:15 W 9 9.00 Fair CLR 73.8 49.8 43% 29.95 0.0
30 03:55 W 10 10.00 Fair CLR 74.7 50 42% 29.95 0.0
30 03:35 W 8 9.00 Fair CLR 74.3 50 43% 29.95 0.0
30 03:15 W 8 9.00 Fair CLR 74.3 50 43% 29.95 0.0
30 02:55 W 6 9.00 Fair CLR 74.3 50 43% 29.95 0.0
30 02:35 W 10 9.00 Fair CLR 75.4 50 41% 78 29.95 0.0
30 02:15 W 14 9.00 A Few Clouds FEW260 75.9 49.8 40% 78 29.95 0.0
30 01:55 W 13 9.00 Partly Cloudy SCT230 SCT260 76.6 50 39% 78 29.95 0.0
30 01:35 NW 15 G 21 9.00 Partly Cloudy SCT230 76.6 49.6 39% 78 29.95 0.0
30 01:15 W 9 9.00 Partly Cloudy SCT230 75.9 49.6 40% 78 29.95 0.0
30 00:55 W 7 9.00 Fair CLR 77 49.3 38% 78 29.95 0.0
30 00:35 W 9 9.00 Fair CLR 78.1 48.6 35% 78 29.95 0.0
30 00:15 W 9 9.00 Fair CLR 77.9 48.6 36% 78 29.95 0.0
29 23:55 W 10 9.00 A Few Clouds FEW260 77.7 48.6 36% 78 29.95 0.0
Date Time (pdt) Wind (mph) Vis. (mi.) Weather Sky Cond. Air Dwpt Max. Min. Relative Humidity Wind Chill (°F) Heat Index (°F) altimeter (in) sea level (mb) 1 hr 3 hr 6 hr
6 hour
Temperature (ºF) Pressure Precipitation (in)